< < Back
Terminal Aerodrome Forecast


Current Version              Previous Versions:   1  2  3  4  5  6  7  8  9  

Terminal Aerodrome Forecast

960
FTUS42 KGSP 191200 AAA
TAFHKY
TAF AMD
KHKY 191247Z 1913/2012 03006KT 6SM -RA BR SCT040 OVC060
     FM191500 04012G19KT 6SM -RA BR OVC025
     FM192100 05011KT 6SM BR VCSH OVC040
     FM200300 03006KT P6SM BKN050=

Latest METAR

128
SAUS70 KWBC 200600 RRH
MTRHKY
METAR KHKY 200553Z 00000KT 10SM CLR 10/09 A3021 RMK AO2 SLP219 60013
T01000089 10111 20100 58010


USA.gov is the U.S. government's official web portal to all federal, state and local government web resources and services.